San José, Costa Rica

12:13 AM CST on March 02, 2015 (GMT -0600)
San Pedro, Montes de Oca | Change Station
CLOSE
Current Station
Personal Weather Station
Location: San Pedro, SAN JOSE
Elevation: 3960 ft
Nearby Weather Stations

Elev 3960 ft 9.94 °N, 84.05 °W | Updated 2 minutes ago

Partly Cloudy
Partly Cloudy
63.0 °F
Feels Like 63.0 °F
N
4.0
Wind Variable Wind from East
Gusts 7.0 mph

Today
High -- | Low -- °F
--% Chance of Precip.
Yesterday
High -- | Low -- °F
Precip. -- in
5:50 AM 5:46 PM
Waxing Gibbous, 89% visible
Pressure 30.03 in
Visibility 6.2 miles
Clouds Few 3500 ft
Dew Point 55 °F
Humidity 76%
Rainfall 0.00 in
Snow Depth Not available.
UV 0.0 out of 12
Pollen Not available.
Air Quality Not available.
Flu Activity Not available.
METAR MROC 020600Z 10016G26KT 9999 FEW035 20/14 A3003 NOSIG

More Conditions Fewer Conditions

Pressure 30.03 in
Visibility 6.2 miles
Clouds Few 3500 ft
Dew Point 55 °F
Humidity 76%
Rainfall 0.00 in
Snow Depth Not available.
UV 0.0 out of 12
Pollen Not available.
Air Quality Not available.
Flu Activity Not available.
METAR MROC 020600Z 10016G26KT 9999 FEW035 20/14 A3003 NOSIG

More Conditions Fewer Conditions

10-Day Weather Forecast

Almanac

Astronomy

Mar. 02, 2015 Rise Set
Actual Time
Civil Twilight
Nautical Twilight
Astronomical Twilight
Moon
Length of Visible Light
Length of Day
Tomorrow will be .
, % of the Moon is Illuminated

Today's Extremes

Country Highs Country Lows

Community

WunderPhotos

Upload Photos

1,801,738 photos uploaded!

WunderBlogs® & News

Nearby

Air Quality

  Air Quality AQ Index Pollutant
Not available.

Snow Depth

Station Depth Elevation

Earthquake Activity

City Distance Mag. Time & Date
Minimum magnitude displayed is 2.5.

Coastal Water Temperatures

Place Temperature

Nearby Weather Stations